Scroll down
FLIGHT INFORMATION
PMDG Flight Operations

PFO804

At Arrival Gate

KPAE
 KLAX
DATE: 2018-08-04
GATE:  -
GATE DEPARTURE: 18:43
TAKEOFF: 18:55
DATE: 2018-08-04
GATE: S1
LANDING: 21:01
GATE ARRIVAL: 21:05
FLIGHT DATA
Crew: 
Speed: 
522 kts
Altitude: 
39,035 ft
Stage Length: 
856.4 nm
Block Time: 
2.4 hrs
Flight Time: 
2.1 hrs
Fuel Used: 
38,304 lb
Cleared Route: 
TRACK DATA
50,000 ft 1,000 kts
AIRCRAFT INFO AND CUMULATIVE STATS
Aircraft Type: 
B748F
Registration: 
SELCAL: 
MSN/LN: 
0 / 2
Total Flights: 
6
Total Block Time: 
52.1 hrs
Total Flight Time: 
50.7 hrs
Total Fuel Time: 
1,013,403 lb
DATALINK LOG | Newest first | Current as of: 2020-11-29 22:16:30
LABEL SEQUENCE CONTENT Dn/Up
QD051721:05 43▼ Dn
QC013021:01▼ Dn
2U4311KLAX 041953Z 25011KT 10SM FEW012 SCT200 26/18 A2988 RMK AO2 SLP117 T02560183▲ Up
2S4132KLAX▼ Dn
GA1237CARGO STAND S1▲ Up
GR0118KLAX▼ Dn
QB551918:55▼ Dn
QA434918:43 81.6▼ Dn
2U3100KLAX 041753Z 25009KT 9SM FEW012 FEW200 26/19 A2989 RMK AO2 SLP119 T02610189 10272 20194 58004▲ Up
2U3100KPAE 041753Z 00000KT 10SM SCT009 17/13 A3006 RMK AO2 SLP179 T01670128 10172 20128 58007▲ Up
2S2856KPAE KLAX▼ Dn


AIRCRAFT HISTORY
FLIGHT DATE FLIGHT NO. ORIGIN DESTINATION CLEARED ROUTE BLOCK TIME FLIGHT TIME FUEL USED PILOT
2018-08-24PFO24KLAX ZBAA 12.8 hrs12.4 hrs246,438 lbMichael Roth
2018-08-23PFO23KIAD KLAX 4.9 hrs4.7 hrs96,956 lbMichael Roth
2018-08-20PFO1204KSFO KIAD 4.9 hrs4.4 hrs94,882 lbMark Adeane
2018-08-19PFO3265YSSY KSFO 13.2 hrs12.9 hrs285,878 lbMark Adeane
2018-08-04PFO804KLAX YSSY 14.5 hrs14.2 hrs250,945 lbKyle Rodgers
2018-08-04PFO804KPAE KLAX 2.4 hrs2.1 hrs38,304 lbKyle Rodgers